sensor_id;sensor_type;location;lat;lon;timestamp;P1;durP1;ratioP1;P2;durP2;ratioP2
17528;SDS011;8882;53.192;8.184;2023-02-11T08:01:00;13.23;;;7.20;;
17528;SDS011;8882;53.192;8.184;2023-02-11T08:03:26;15.77;;;7.20;;
17528;SDS011;8882;53.192;8.184;2023-02-11T08:05:52;14.70;;;6.77;;
17528;SDS011;8882;53.192;8.184;2023-02-11T08:08:17;14.40;;;6.40;;
17528;SDS011;8882;53.192;8.184;2023-02-11T08:10:43;16.60;;;7.53;;
17528;SDS011;8882;53.192;8.184;2023-02-11T08:13:08;17.30;;;7.70;;
17528;SDS011;8882;53.192;8.184;2023-02-11T08:15:34;16.70;;;6.80;;
17528;SDS011;8882;53.192;8.184;2023-02-11T08:17:59;13.70;;;7.37;;
17528;SDS011;8882;53.192;8.184;2023-02-11T08:20:25;13.37;;;8.07;;
17528;SDS011;8882;53.192;8.184;2023-02-11T08:22:50;17.97;;;7.43;;
17528;SDS011;8882;53.192;8.184;2023-02-11T08:25:16;17.83;;;7.67;;
17528;SDS011;8882;53.192;8.184;2023-02-11T08:27:41;19.03;;;6.90;;
17528;SDS011;8882;53.192;8.184;2023-02-11T08:30:07;16.77;;;7.30;;
17528;SDS011;8882;53.192;8.184;2023-02-11T08:32:33;15.87;;;7.27;;
17528;SDS011;8882;53.192;8.184;2023-02-11T08:34:59;16.37;;;7.17;;
17528;SDS011;8882;53.192;8.184;2023-02-11T08:37:25;15.03;;;7.43;;
17528;SDS011;8882;53.192;8.184;2023-02-11T08:39:51;14.50;;;6.97;;
17528;SDS011;8882;53.192;8.184;2023-02-11T08:42:16;18.37;;;7.97;;
17528;SDS011;8882;53.192;8.184;2023-02-11T08:44:42;16.80;;;7.57;;
17528;SDS011;8882;53.192;8.184;2023-02-11T08:47:07;15.00;;;7.20;;
17528;SDS011;8882;53.192;8.184;2023-02-11T08:49:33;14.93;;;7.30;;
17528;SDS011;8882;53.192;8.184;2023-02-11T08:51:59;15.10;;;7.17;;
17528;SDS011;8882;53.192;8.184;2023-02-11T08:54:28;14.77;;;7.07;;
17528;SDS011;8882;53.192;8.184;2023-02-11T08:56:54;21.13;;;7.23;;
17528;SDS011;8882;53.192;8.184;2023-02-11T08:59:20;16.57;;;8.00;;
17528;SDS011;8882;53.192;8.184;2023-02-11T09:01:45;17.13;;;7.43;;
17528;SDS011;8882;53.192;8.184;2023-02-11T09:04:11;17.70;;;7.23;;
17528;SDS011;8882;53.192;8.184;2023-02-11T09:06:37;14.33;;;7.50;;
17528;SDS011;8882;53.192;8.184;2023-02-11T09:09:03;17.03;;;7.07;;
17528;SDS011;8882;53.192;8.184;2023-02-11T09:11:30;15.50;;;7.50;;
17528;SDS011;8882;53.192;8.184;2023-02-11T09:13:57;25.43;;;8.23;;
17528;SDS011;8882;53.192;8.184;2023-02-11T09:16:24;16.67;;;6.87;;
17528;SDS011;8882;53.192;8.184;2023-02-11T09:18:52;16.53;;;7.03;;
17528;SDS011;8882;53.192;8.184;2023-02-11T09:21:18;19.17;;;7.90;;
17528;SDS011;8882;53.192;8.184;2023-02-11T09:23:44;19.73;;;8.27;;
17528;SDS011;8882;53.192;8.184;2023-02-11T09:26:13;17.33;;;7.70;;
17528;SDS011;8882;53.192;8.184;2023-02-11T09:28:40;21.17;;;7.43;;
17528;SDS011;8882;53.192;8.184;2023-02-11T09:31:06;14.33;;;7.17;;
17528;SDS011;8882;53.192;8.184;2023-02-11T09:33:34;20.03;;;8.47;;
17528;SDS011;8882;53.192;8.184;2023-02-11T09:36:00;20.83;;;8.07;;
17528;SDS011;8882;53.192;8.184;2023-02-11T09:38:27;17.10;;;8.30;;
17528;SDS011;8882;53.192;8.184;2023-02-11T09:40:53;18.23;;;8.30;;
17528;SDS011;8882;53.192;8.184;2023-02-11T09:43:19;22.80;;;8.10;;
17528;SDS011;8882;53.192;8.184;2023-02-11T09:45:57;23.67;;;8.57;;
17528;SDS011;8882;53.192;8.184;2023-02-11T09:48:23;15.40;;;8.10;;
17528;SDS011;8882;53.192;8.184;2023-02-11T09:50:53;14.87;;;7.83;;
17528;SDS011;8882;53.192;8.184;2023-02-11T09:55:52;17.10;;;7.83;;
17528;SDS011;8882;53.192;8.184;2023-02-11T09:58:30;18.10;;;8.40;;
17528;SDS011;8882;53.192;8.184;2023-02-11T10:03:46;17.90;;;8.00;;
17528;SDS011;8882;53.192;8.184;2023-02-11T10:06:34;22.80;;;8.87;;
17528;SDS011;8882;53.192;8.184;2023-02-11T10:11:50;19.00;;;8.07;;
17528;SDS011;8882;53.192;8.184;2023-02-11T10:17:31;16.83;;;8.03;;
17528;SDS011;8882;53.192;8.184;2023-02-11T10:20:14;18.23;;;8.73;;
17528;SDS011;8882;53.192;8.184;2023-02-11T10:23:04;22.10;;;8.70;;
17528;SDS011;8882;53.192;8.184;2023-02-11T10:25:38;19.93;;;7.83;;
17528;SDS011;8882;53.192;8.184;2023-02-11T10:28:10;21.10;;;8.50;;
17528;SDS011;8882;53.192;8.184;2023-02-11T10:31:13;16.00;;;8.50;;
17528;SDS011;8882;53.192;8.184;2023-02-11T10:33:36;16.23;;;8.03;;
17528;SDS011;8882;53.192;8.184;2023-02-11T10:36:05;15.90;;;7.33;;
17528;SDS011;8882;53.192;8.184;2023-02-11T10:38:31;19.33;;;8.57;;
17528;SDS011;8882;53.192;8.184;2023-02-11T10:40:57;16.40;;;7.77;;
17528;SDS011;8882;53.192;8.184;2023-02-11T10:43:25;15.53;;;7.83;;
17528;SDS011;8882;53.192;8.184;2023-02-11T10:45:52;18.90;;;8.37;;
17528;SDS011;8882;53.192;8.184;2023-02-11T10:48:39;11.83;;;7.43;;
17528;SDS011;8882;53.192;8.184;2023-02-11T10:51:14;15.13;;;7.77;;
17528;SDS011;8882;53.192;8.184;2023-02-11T10:53:41;16.50;;;8.57;;
17528;SDS011;8882;53.192;8.184;2023-02-11T10:56:09;16.97;;;8.07;;
17528;SDS011;8882;53.192;8.184;2023-02-11T10:58:43;13.23;;;7.30;;
17528;SDS011;8882;53.192;8.184;2023-02-11T11:01:19;17.53;;;7.60;;
17528;SDS011;8882;53.192;8.184;2023-02-11T11:03:46;18.10;;;8.83;;
17528;SDS011;8882;53.192;8.184;2023-02-11T11:06:14;17.23;;;7.63;;
17528;SDS011;8882;53.192;8.184;2023-02-11T11:11:14;17.33;;;7.67;;
17528;SDS011;8882;53.192;8.184;2023-02-11T11:13:54;13.73;;;6.90;;
17528;SDS011;8882;53.192;8.184;2023-02-11T11:18:52;15.70;;;7.90;;
17528;SDS011;8882;53.192;8.184;2023-02-11T11:21:42;17.17;;;7.27;;
17528;SDS011;8882;53.192;8.184;2023-02-11T11:24:28;15.03;;;6.50;;
17528;SDS011;8882;53.192;8.184;2023-02-11T11:26:59;18.33;;;6.80;;
17528;SDS011;8882;53.192;8.184;2023-02-11T11:29:42;13.47;;;6.23;;
17528;SDS011;8882;53.192;8.184;2023-02-11T11:32:21;19.43;;;7.57;;
17528;SDS011;8882;53.192;8.184;2023-02-11T11:34:59;19.33;;;7.30;;
17528;SDS011;8882;53.192;8.184;2023-02-11T11:37:28;18.83;;;7.03;;
17528;SDS011;8882;53.192;8.184;2023-02-11T11:42:46;14.10;;;6.43;;
17528;SDS011;8882;53.192;8.184;2023-02-11T11:45:28;18.40;;;7.20;;
17528;SDS011;8882;53.192;8.184;2023-02-11T11:48:02;16.87;;;6.70;;
17528;SDS011;8882;53.192;8.184;2023-02-11T11:50:49;16.37;;;6.87;;
17528;SDS011;8882;53.192;8.184;2023-02-11T11:58:28;13.40;;;6.73;;
17528;SDS011;8882;53.192;8.184;2023-02-11T12:04:04;19.00;;;6.37;;
17528;SDS011;8882;53.192;8.184;2023-02-11T12:09:51;14.77;;;6.77;;
17528;SDS011;8882;53.192;8.184;2023-02-11T12:15:38;22.83;;;6.50;;
17528;SDS011;8882;53.192;8.184;2023-02-11T12:18:36;15.83;;;6.53;;
17528;SDS011;8882;53.192;8.184;2023-02-11T12:23:52;25.67;;;7.10;;
17528;SDS011;8882;53.192;8.184;2023-02-11T12:34:43;23.63;;;6.63;;
17528;SDS011;8882;53.192;8.184;2023-02-11T12:40:12;16.57;;;5.93;;
17528;SDS011;8882;53.192;8.184;2023-02-11T12:42:49;8.97;;;4.93;;
17528;SDS011;8882;53.192;8.184;2023-02-11T12:45:45;10.47;;;5.17;;
17528;SDS011;8882;53.192;8.184;2023-02-11T12:57:02;15.27;;;6.10;;
17528;SDS011;8882;53.192;8.184;2023-02-11T13:02:58;19.10;;;4.97;;
17528;SDS011;8882;53.192;8.184;2023-02-11T13:05:42;18.03;;;6.70;;
17528;SDS011;8882;53.192;8.184;2023-02-11T13:10:47;10.27;;;5.73;;
17528;SDS011;8882;53.192;8.184;2023-02-11T13:15:49;11.47;;;5.77;;
17528;SDS011;8882;53.192;8.184;2023-02-11T13:23:42;11.13;;;4.87;;
17528;SDS011;8882;53.192;8.184;2023-02-11T13:26:32;12.40;;;4.50;;
17528;SDS011;8882;53.192;8.184;2023-02-11T13:32:04;10.83;;;3.93;;
17528;SDS011;8882;53.192;8.184;2023-02-11T13:37:22;17.53;;;5.03;;
17528;SDS011;8882;53.192;8.184;2023-02-11T13:40:04;8.70;;;3.80;;
17528;SDS011;8882;53.192;8.184;2023-02-11T13:42:48;15.27;;;4.63;;
17528;SDS011;8882;53.192;8.184;2023-02-11T13:45:16;9.90;;;4.03;;
17528;SDS011;8882;53.192;8.184;2023-02-11T13:47:54;13.53;;;4.57;;
17528;SDS011;8882;53.192;8.184;2023-02-11T13:50:24;14.13;;;3.70;;
17528;SDS011;8882;53.192;8.184;2023-02-11T13:52:59;8.20;;;3.03;;
17528;SDS011;8882;53.192;8.184;2023-02-11T13:55:26;13.87;;;3.53;;
17528;SDS011;8882;53.192;8.184;2023-02-11T14:22:02;10.37;;;3.10;;
17528;SDS011;8882;53.192;8.184;2023-02-11T14:35:50;9.83;;;3.23;;
17528;SDS011;8882;53.192;8.184;2023-02-11T14:41:09;8.90;;;2.90;;
17528;SDS011;8882;53.192;8.184;2023-02-11T14:43:57;10.83;;;3.53;;
17528;SDS011;8882;53.192;8.184;2023-02-11T14:46:28;12.10;;;3.23;;
17528;SDS011;8882;53.192;8.184;2023-02-11T14:48:57;10.37;;;3.00;;
17528;SDS011;8882;53.192;8.184;2023-02-11T14:51:29;10.53;;;3.77;;
17528;SDS011;8882;53.192;8.184;2023-02-11T14:54:20;12.93;;;2.83;;
17528;SDS011;8882;53.192;8.184;2023-02-11T14:57:11;11.50;;;2.93;;
17528;SDS011;8882;53.192;8.184;2023-02-11T14:59:39;13.00;;;3.67;;
17528;SDS011;8882;53.192;8.184;2023-02-11T15:02:32;8.00;;;3.03;;
17528;SDS011;8882;53.192;8.184;2023-02-11T15:05:14;12.83;;;3.00;;
17528;SDS011;8882;53.192;8.184;2023-02-11T15:07:52;8.67;;;3.03;;
17528;SDS011;8882;53.192;8.184;2023-02-11T15:10:21;7.77;;;3.03;;
17528;SDS011;8882;53.192;8.184;2023-02-11T15:12:52;10.83;;;2.70;;
17528;SDS011;8882;53.192;8.184;2023-02-11T15:15:19;9.17;;;2.87;;
17528;SDS011;8882;53.192;8.184;2023-02-11T15:17:45;8.07;;;2.77;;
17528;SDS011;8882;53.192;8.184;2023-02-11T15:20:44;8.23;;;2.60;;
17528;SDS011;8882;53.192;8.184;2023-02-11T15:23:06;12.40;;;2.87;;
17528;SDS011;8882;53.192;8.184;2023-02-11T15:25:42;15.73;;;3.43;;
17528;SDS011;8882;53.192;8.184;2023-02-11T15:28:14;12.40;;;2.60;;
17528;SDS011;8882;53.192;8.184;2023-02-11T15:30:55;10.27;;;2.73;;
17528;SDS011;8882;53.192;8.184;2023-02-11T15:33:25;13.17;;;3.30;;
17528;SDS011;8882;53.192;8.184;2023-02-11T15:35:54;12.70;;;3.20;;
17528;SDS011;8882;53.192;8.184;2023-02-11T15:38:21;13.10;;;3.20;;
17528;SDS011;8882;53.192;8.184;2023-02-11T15:40:53;11.17;;;3.30;;
17528;SDS011;8882;53.192;8.184;2023-02-11T15:43:20;6.70;;;2.70;;
17528;SDS011;8882;53.192;8.184;2023-02-11T15:48:31;10.30;;;3.53;;
17528;SDS011;8882;53.192;8.184;2023-02-11T15:51:01;10.73;;;3.13;;
17528;SDS011;8882;53.192;8.184;2023-02-11T15:53:54;7.53;;;3.23;;
17528;SDS011;8882;53.192;8.184;2023-02-11T15:56:27;12.23;;;2.80;;
17528;SDS011;8882;53.192;8.184;2023-02-11T15:58:57;17.50;;;2.93;;
17528;SDS011;8882;53.192;8.184;2023-02-11T16:01:31;9.50;;;3.13;;
17528;SDS011;8882;53.192;8.184;2023-02-11T16:03:58;16.60;;;3.23;;
17528;SDS011;8882;53.192;8.184;2023-02-11T16:06:26;9.63;;;2.93;;
17528;SDS011;8882;53.192;8.184;2023-02-11T16:11:34;12.53;;;3.33;;
17528;SDS011;8882;53.192;8.184;2023-02-11T16:14:15;9.70;;;2.63;;
17528;SDS011;8882;53.192;8.184;2023-02-11T16:19:34;12.70;;;3.43;;
17528;SDS011;8882;53.192;8.184;2023-02-11T16:22:10;16.97;;;3.37;;
17528;SDS011;8882;53.192;8.184;2023-02-11T16:24:41;17.00;;;4.03;;
17528;SDS011;8882;53.192;8.184;2023-02-11T16:29:54;38.53;;;12.00;;
17528;SDS011;8882;53.192;8.184;2023-02-11T16:32:22;12.57;;;4.80;;
17528;SDS011;8882;53.192;8.184;2023-02-11T16:34:49;19.63;;;5.30;;
17528;SDS011;8882;53.192;8.184;2023-02-11T16:37:15;14.70;;;6.17;;
17528;SDS011;8882;53.192;8.184;2023-02-11T16:39:41;14.73;;;3.73;;
17528;SDS011;8882;53.192;8.184;2023-02-11T16:42:06;14.03;;;3.73;;
17528;SDS011;8882;53.192;8.184;2023-02-11T16:44:32;4.97;;;2.70;;
17528;SDS011;8882;53.192;8.184;2023-02-11T16:46:58;11.00;;;3.07;;
17528;SDS011;8882;53.192;8.184;2023-02-11T16:49:36;10.80;;;3.40;;
17528;SDS011;8882;53.192;8.184;2023-02-11T16:52:05;15.43;;;4.03;;
17528;SDS011;8882;53.192;8.184;2023-02-11T16:54:33;12.33;;;4.00;;
17528;SDS011;8882;53.192;8.184;2023-02-11T16:56:58;9.30;;;3.03;;
17528;SDS011;8882;53.192;8.184;2023-02-11T16:59:24;13.20;;;4.10;;
17528;SDS011;8882;53.192;8.184;2023-02-11T17:01:50;11.20;;;3.67;;
17528;SDS011;8882;53.192;8.184;2023-02-11T17:04:35;8.33;;;3.00;;
17528;SDS011;8882;53.192;8.184;2023-02-11T17:07:00;14.10;;;4.77;;
17528;SDS011;8882;53.192;8.184;2023-02-11T17:09:26;14.30;;;4.47;;
17528;SDS011;8882;53.192;8.184;2023-02-11T17:11:52;10.63;;;6.20;;
17528;SDS011;8882;53.192;8.184;2023-02-11T17:14:18;15.50;;;5.57;;
17528;SDS011;8882;53.192;8.184;2023-02-11T17:19:50;17.33;;;4.67;;
17528;SDS011;8882;53.192;8.184;2023-02-11T17:22:15;46.50;;;18.07;;
17528;SDS011;8882;53.192;8.184;2023-02-11T17:24:41;33.40;;;13.00;;
17528;SDS011;8882;53.192;8.184;2023-02-11T17:27:06;42.83;;;16.23;;
17528;SDS011;8882;53.192;8.184;2023-02-11T17:29:33;19.83;;;8.60;;
17528;SDS011;8882;53.192;8.184;2023-02-11T17:31:58;24.17;;;11.27;;
17528;SDS011;8882;53.192;8.184;2023-02-11T17:34:24;16.63;;;6.90;;
17528;SDS011;8882;53.192;8.184;2023-02-11T17:36:49;26.27;;;14.30;;
17528;SDS011;8882;53.192;8.184;2023-02-11T17:39:15;20.20;;;7.70;;
17528;SDS011;8882;53.192;8.184;2023-02-11T17:41:41;11.70;;;5.33;;
17528;SDS011;8882;53.192;8.184;2023-02-11T17:44:07;10.57;;;4.20;;
17528;SDS011;8882;53.192;8.184;2023-02-11T17:46:34;16.80;;;3.63;;
17528;SDS011;8882;53.192;8.184;2023-02-11T17:49:00;15.37;;;4.10;;
17528;SDS011;8882;53.192;8.184;2023-02-11T17:51:28;12.20;;;4.03;;
17528;SDS011;8882;53.192;8.184;2023-02-11T17:53:56;11.80;;;3.90;;
17528;SDS011;8882;53.192;8.184;2023-02-11T17:56:22;17.50;;;3.80;;
17528;SDS011;8882;53.192;8.184;2023-02-11T17:58:48;20.63;;;4.40;;
17528;SDS011;8882;53.192;8.184;2023-02-11T18:01:14;18.87;;;3.83;;
17528;SDS011;8882;53.192;8.184;2023-02-11T18:03:39;14.33;;;3.63;;
17528;SDS011;8882;53.192;8.184;2023-02-11T18:06:05;16.67;;;4.27;;
17528;SDS011;8882;53.192;8.184;2023-02-11T18:08:31;37.13;;;16.30;;
17528;SDS011;8882;53.192;8.184;2023-02-11T18:10:58;15.60;;;6.60;;
17528;SDS011;8882;53.192;8.184;2023-02-11T18:13:24;12.73;;;4.77;;
17528;SDS011;8882;53.192;8.184;2023-02-11T18:15:51;14.33;;;4.20;;
17528;SDS011;8882;53.192;8.184;2023-02-11T18:18:16;4.67;;;3.37;;
17528;SDS011;8882;53.192;8.184;2023-02-11T18:20:42;6.13;;;3.50;;
17528;SDS011;8882;53.192;8.184;2023-02-11T18:23:09;14.80;;;3.80;;
17528;SDS011;8882;53.192;8.184;2023-02-11T18:25:35;10.40;;;3.27;;
17528;SDS011;8882;53.192;8.184;2023-02-11T18:28:00;11.27;;;3.70;;
17528;SDS011;8882;53.192;8.184;2023-02-11T18:30:28;17.57;;;4.67;;
17528;SDS011;8882;53.192;8.184;2023-02-11T18:32:55;10.57;;;3.80;;
17528;SDS011;8882;53.192;8.184;2023-02-11T18:35:21;14.77;;;4.47;;
17528;SDS011;8882;53.192;8.184;2023-02-11T18:37:47;14.30;;;3.83;;
17528;SDS011;8882;53.192;8.184;2023-02-11T18:40:12;7.27;;;3.90;;
17528;SDS011;8882;53.192;8.184;2023-02-11T18:42:39;13.77;;;4.00;;
17528;SDS011;8882;53.192;8.184;2023-02-11T18:45:05;9.07;;;3.97;;
17528;SDS011;8882;53.192;8.184;2023-02-11T18:47:33;16.77;;;5.03;;
17528;SDS011;8882;53.192;8.184;2023-02-11T18:49:59;10.80;;;3.47;;
17528;SDS011;8882;53.192;8.184;2023-02-11T18:52:25;9.27;;;3.50;;
17528;SDS011;8882;53.192;8.184;2023-02-11T18:54:50;10.00;;;4.17;;
17528;SDS011;8882;53.192;8.184;2023-02-11T18:57:16;13.57;;;3.87;;
17528;SDS011;8882;53.192;8.184;2023-02-11T18:59:41;14.70;;;3.47;;
17528;SDS011;8882;53.192;8.184;2023-02-11T19:02:08;9.00;;;2.90;;
17528;SDS011;8882;53.192;8.184;2023-02-11T19:04:34;17.03;;;3.20;;
17528;SDS011;8882;53.192;8.184;2023-02-11T19:07:01;12.43;;;3.70;;
17528;SDS011;8882;53.192;8.184;2023-02-11T19:09:28;7.83;;;3.33;;
17528;SDS011;8882;53.192;8.184;2023-02-11T19:11:53;8.17;;;3.40;;
17528;SDS011;8882;53.192;8.184;2023-02-11T19:14:24;10.47;;;2.73;;
17528;SDS011;8882;53.192;8.184;2023-02-11T19:16:53;13.03;;;3.10;;
17528;SDS011;8882;53.192;8.184;2023-02-11T19:19:22;9.90;;;3.10;;
17528;SDS011;8882;53.192;8.184;2023-02-11T19:21:49;13.80;;;3.43;;
17528;SDS011;8882;53.192;8.184;2023-02-11T19:24:15;15.10;;;3.50;;
17528;SDS011;8882;53.192;8.184;2023-02-11T19:26:43;11.53;;;4.00;;
17528;SDS011;8882;53.192;8.184;2023-02-11T19:29:10;8.70;;;3.37;;
17528;SDS011;8882;53.192;8.184;2023-02-11T19:31:36;12.23;;;3.83;;
17528;SDS011;8882;53.192;8.184;2023-02-11T19:34:02;8.73;;;3.20;;
17528;SDS011;8882;53.192;8.184;2023-02-11T19:36:28;12.57;;;3.10;;
17528;SDS011;8882;53.192;8.184;2023-02-11T19:38:54;9.10;;;2.97;;
17528;SDS011;8882;53.192;8.184;2023-02-11T19:41:21;12.23;;;4.10;;
17528;SDS011;8882;53.192;8.184;2023-02-11T19:43:47;8.20;;;3.23;;
17528;SDS011;8882;53.192;8.184;2023-02-11T19:46:17;8.37;;;3.20;;
17528;SDS011;8882;53.192;8.184;2023-02-11T19:48:50;10.60;;;3.13;;
17528;SDS011;8882;53.192;8.184;2023-02-11T19:51:16;10.07;;;3.40;;
17528;SDS011;8882;53.192;8.184;2023-02-11T19:53:42;9.20;;;3.20;;
17528;SDS011;8882;53.192;8.184;2023-02-11T19:56:08;10.00;;;3.00;;
17528;SDS011;8882;53.192;8.184;2023-02-11T19:58:34;9.37;;;3.50;;
17528;SDS011;8882;53.192;8.184;2023-02-11T20:01:12;12.13;;;3.43;;
17528;SDS011;8882;53.192;8.184;2023-02-11T20:03:40;14.73;;;3.53;;
17528;SDS011;8882;53.192;8.184;2023-02-11T20:06:06;6.63;;;3.70;;
17528;SDS011;8882;53.192;8.184;2023-02-11T20:08:34;11.10;;;3.63;;
17528;SDS011;8882;53.192;8.184;2023-02-11T20:13:35;9.93;;;3.83;;
17528;SDS011;8882;53.192;8.184;2023-02-11T20:16:12;10.93;;;3.97;;
17528;SDS011;8882;53.192;8.184;2023-02-11T20:18:40;15.33;;;3.87;;
17528;SDS011;8882;53.192;8.184;2023-02-11T20:21:10;9.90;;;4.20;;
17528;SDS011;8882;53.192;8.184;2023-02-11T20:23:39;18.17;;;4.23;;
17528;SDS011;8882;53.192;8.184;2023-02-11T20:28:36;11.00;;;4.63;;
17528;SDS011;8882;53.192;8.184;2023-02-11T20:31:03;12.20;;;3.87;;
17528;SDS011;8882;53.192;8.184;2023-02-11T20:33:29;9.97;;;4.00;;
17528;SDS011;8882;53.192;8.184;2023-02-11T20:36:03;13.50;;;4.33;;
17528;SDS011;8882;53.192;8.184;2023-02-11T20:38:33;12.10;;;3.87;;
17528;SDS011;8882;53.192;8.184;2023-02-11T20:41:04;14.97;;;4.27;;
17528;SDS011;8882;53.192;8.184;2023-02-11T20:43:37;10.33;;;4.30;;
17528;SDS011;8882;53.192;8.184;2023-02-11T20:46:06;20.30;;;4.43;;
17528;SDS011;8882;53.192;8.184;2023-02-11T20:48:33;14.50;;;5.13;;
17528;SDS011;8882;53.192;8.184;2023-02-11T20:51:05;16.00;;;4.47;;
17528;SDS011;8882;53.192;8.184;2023-02-11T20:53:33;14.70;;;4.80;;
17528;SDS011;8882;53.192;8.184;2023-02-11T20:56:01;11.43;;;5.17;;
17528;SDS011;8882;53.192;8.184;2023-02-11T20:58:28;17.03;;;4.30;;
17528;SDS011;8882;53.192;8.184;2023-02-11T21:00:53;12.20;;;4.80;;
17528;SDS011;8882;53.192;8.184;2023-02-11T21:03:19;11.13;;;4.23;;
17528;SDS011;8882;53.192;8.184;2023-02-11T21:05:44;10.20;;;4.10;;
17528;SDS011;8882;53.192;8.184;2023-02-11T21:08:10;13.03;;;3.77;;
17528;SDS011;8882;53.192;8.184;2023-02-11T21:10:35;13.63;;;4.17;;
17528;SDS011;8882;53.192;8.184;2023-02-11T21:13:01;9.63;;;3.83;;
17528;SDS011;8882;53.192;8.184;2023-02-11T21:15:27;12.63;;;3.83;;
17528;SDS011;8882;53.192;8.184;2023-02-11T21:17:53;6.53;;;4.17;;
17528;SDS011;8882;53.192;8.184;2023-02-11T21:20:18;15.03;;;4.00;;
17528;SDS011;8882;53.192;8.184;2023-02-11T21:22:44;10.83;;;3.77;;
17528;SDS011;8882;53.192;8.184;2023-02-11T21:25:09;11.03;;;3.83;;
17528;SDS011;8882;53.192;8.184;2023-02-11T21:27:35;12.70;;;3.80;;
17528;SDS011;8882;53.192;8.184;2023-02-11T21:30:02;10.13;;;3.43;;
17528;SDS011;8882;53.192;8.184;2023-02-11T21:32:27;9.03;;;3.40;;
17528;SDS011;8882;53.192;8.184;2023-02-11T21:34:53;15.07;;;3.77;;
17528;SDS011;8882;53.192;8.184;2023-02-11T21:37:19;8.43;;;3.47;;
17528;SDS011;8882;53.192;8.184;2023-02-11T21:39:47;13.20;;;3.80;;
17528;SDS011;8882;53.192;8.184;2023-02-11T21:42:12;12.53;;;4.40;;
17528;SDS011;8882;53.192;8.184;2023-02-11T21:44:38;11.30;;;4.23;;
17528;SDS011;8882;53.192;8.184;2023-02-11T21:47:03;24.00;;;4.77;;
17528;SDS011;8882;53.192;8.184;2023-02-11T21:49:29;12.20;;;3.97;;
17528;SDS011;8882;53.192;8.184;2023-02-11T21:51:54;10.53;;;3.70;;
17528;SDS011;8882;53.192;8.184;2023-02-11T21:54:20;13.13;;;4.10;;
17528;SDS011;8882;53.192;8.184;2023-02-11T21:56:48;15.53;;;4.13;;
17528;SDS011;8882;53.192;8.184;2023-02-11T21:59:14;12.60;;;4.97;;
